sensor_id;sensor_type;location;lat;lon;timestamp;P1;durP1;ratioP1;P2;durP2;ratioP2
39654;SDS011;25336;59.944;11.010;2023-04-06T00:01:35;0.90;;;0.90;;
39654;SDS011;25336;59.944;11.010;2023-04-06T00:04:01;0.77;;;0.77;;
39654;SDS011;25336;59.944;11.010;2023-04-06T00:06:27;2.25;;;0.90;;
39654;SDS011;25336;59.944;11.010;2023-04-06T00:08:53;0.77;;;0.77;;
39654;SDS011;25336;59.944;11.010;2023-04-06T00:11:20;1.20;;;0.90;;
39654;SDS011;25336;59.944;11.010;2023-04-06T00:13:46;1.05;;;1.05;;
39654;SDS011;25336;59.944;11.010;2023-04-06T00:16:12;1.27;;;1.10;;
39654;SDS011;25336;59.944;11.010;2023-04-06T00:18:37;1.30;;;1.10;;
39654;SDS011;25336;59.944;11.010;2023-04-06T00:21:04;1.00;;;0.90;;
39654;SDS011;25336;59.944;11.010;2023-04-06T00:23:30;1.23;;;1.00;;
39654;SDS011;25336;59.944;11.010;2023-04-06T00:25:55;1.55;;;0.90;;
39654;SDS011;25336;59.944;11.010;2023-04-06T00:28:21;1.15;;;0.90;;
39654;SDS011;25336;59.944;11.010;2023-04-06T00:30:50;2.80;;;1.15;;
39654;SDS011;25336;59.944;11.010;2023-04-06T00:33:20;1.00;;;0.90;;
39654;SDS011;25336;59.944;11.010;2023-04-06T00:35:46;1.02;;;0.80;;
39654;SDS011;25336;59.944;11.010;2023-04-06T00:38:12;0.75;;;0.70;;
39654;SDS011;25336;59.944;11.010;2023-04-06T00:40:37;0.82;;;0.82;;
39654;SDS011;25336;59.944;11.010;2023-04-06T00:43:05;3.13;;;0.93;;
39654;SDS011;25336;59.944;11.010;2023-04-06T00:45:30;0.75;;;0.75;;
39654;SDS011;25336;59.944;11.010;2023-04-06T00:47:57;1.73;;;1.63;;
39654;SDS011;25336;59.944;11.010;2023-04-06T00:50:23;0.77;;;0.73;;
39654;SDS011;25336;59.944;11.010;2023-04-06T00:52:48;0.98;;;0.88;;
39654;SDS011;25336;59.944;11.010;2023-04-06T00:55:14;1.27;;;1.00;;
39654;SDS011;25336;59.944;11.010;2023-04-06T00:57:40;1.73;;;0.95;;
39654;SDS011;25336;59.944;11.010;2023-04-06T01:00:05;1.63;;;0.88;;
39654;SDS011;25336;59.944;11.010;2023-04-06T01:02:31;3.28;;;1.00;;
39654;SDS011;25336;59.944;11.010;2023-04-06T01:04:57;1.73;;;0.88;;
39654;SDS011;25336;59.944;11.010;2023-04-06T01:07:23;0.88;;;0.80;;
39654;SDS011;25336;59.944;11.010;2023-04-06T01:09:49;0.80;;;0.80;;
39654;SDS011;25336;59.944;11.010;2023-04-06T01:12:15;0.95;;;0.85;;
39654;SDS011;25336;59.944;11.010;2023-04-06T01:14:41;0.70;;;0.70;;
39654;SDS011;25336;59.944;11.010;2023-04-06T01:17:06;0.90;;;0.90;;
39654;SDS011;25336;59.944;11.010;2023-04-06T01:19:32;1.60;;;1.10;;
39654;SDS011;25336;59.944;11.010;2023-04-06T01:21:58;1.17;;;1.08;;
39654;SDS011;25336;59.944;11.010;2023-04-06T01:24:23;1.00;;;0.90;;
39654;SDS011;25336;59.944;11.010;2023-04-06T01:26:49;1.25;;;0.80;;
39654;SDS011;25336;59.944;11.010;2023-04-06T01:29:15;0.93;;;0.93;;
39654;SDS011;25336;59.944;11.010;2023-04-06T01:31:40;0.73;;;0.70;;
39654;SDS011;25336;59.944;11.010;2023-04-06T01:34:06;1.38;;;1.00;;
39654;SDS011;25336;59.944;11.010;2023-04-06T01:36:32;0.88;;;0.80;;
39654;SDS011;25336;59.944;11.010;2023-04-06T01:38:57;0.80;;;0.80;;
39654;SDS011;25336;59.944;11.010;2023-04-06T01:41:23;1.90;;;1.00;;
39654;SDS011;25336;59.944;11.010;2023-04-06T01:43:48;1.85;;;1.02;;
39654;SDS011;25336;59.944;11.010;2023-04-06T01:46:14;0.80;;;0.80;;
39654;SDS011;25336;59.944;11.010;2023-04-06T01:48:41;0.93;;;0.77;;
39654;SDS011;25336;59.944;11.010;2023-04-06T01:51:06;1.00;;;0.90;;
39654;SDS011;25336;59.944;11.010;2023-04-06T01:53:32;0.90;;;0.90;;
39654;SDS011;25336;59.944;11.010;2023-04-06T01:55:58;0.88;;;0.88;;
39654;SDS011;25336;59.944;11.010;2023-04-06T01:58:23;1.10;;;1.00;;
39654;SDS011;25336;59.944;11.010;2023-04-06T02:00:49;0.80;;;0.80;;
39654;SDS011;25336;59.944;11.010;2023-04-06T02:03:14;0.93;;;0.70;;
39654;SDS011;25336;59.944;11.010;2023-04-06T02:05:40;1.20;;;1.05;;
39654;SDS011;25336;59.944;11.010;2023-04-06T02:08:06;0.68;;;0.68;;
39654;SDS011;25336;59.944;11.010;2023-04-06T02:10:32;1.00;;;1.00;;
39654;SDS011;25336;59.944;11.010;2023-04-06T02:13:00;1.65;;;1.00;;
39654;SDS011;25336;59.944;11.010;2023-04-06T02:15:26;0.98;;;0.98;;
39654;SDS011;25336;59.944;11.010;2023-04-06T02:17:52;0.90;;;0.90;;
39654;SDS011;25336;59.944;11.010;2023-04-06T02:20:18;0.82;;;0.77;;
39654;SDS011;25336;59.944;11.010;2023-04-06T02:22:43;1.33;;;1.00;;
39654;SDS011;25336;59.944;11.010;2023-04-06T02:25:09;1.10;;;0.82;;
39654;SDS011;25336;59.944;11.010;2023-04-06T02:27:35;0.80;;;0.80;;
39654;SDS011;25336;59.944;11.010;2023-04-06T02:30:01;1.10;;;1.00;;
39654;SDS011;25336;59.944;11.010;2023-04-06T02:32:30;0.90;;;0.90;;
39654;SDS011;25336;59.944;11.010;2023-04-06T02:34:55;2.08;;;1.02;;
39654;SDS011;25336;59.944;11.010;2023-04-06T02:37:21;1.95;;;1.05;;
39654;SDS011;25336;59.944;11.010;2023-04-06T02:39:48;1.67;;;1.50;;
39654;SDS011;25336;59.944;11.010;2023-04-06T02:42:14;1.40;;;1.27;;
39654;SDS011;25336;59.944;11.010;2023-04-06T02:44:41;1.00;;;0.90;;
39654;SDS011;25336;59.944;11.010;2023-04-06T02:47:07;0.95;;;0.95;;
39654;SDS011;25336;59.944;11.010;2023-04-06T02:49:33;1.35;;;1.25;;
39654;SDS011;25336;59.944;11.010;2023-04-06T02:51:58;0.80;;;0.80;;
39654;SDS011;25336;59.944;11.010;2023-04-06T02:54:24;0.80;;;0.80;;
39654;SDS011;25336;59.944;11.010;2023-04-06T02:56:51;1.20;;;1.10;;
39654;SDS011;25336;59.944;11.010;2023-04-06T02:59:16;0.95;;;0.95;;
39654;SDS011;25336;59.944;11.010;2023-04-06T03:01:42;1.10;;;0.75;;
39654;SDS011;25336;59.944;11.010;2023-04-06T03:04:08;1.92;;;0.90;;
39654;SDS011;25336;59.944;11.010;2023-04-06T03:06:33;1.50;;;1.05;;
39654;SDS011;25336;59.944;11.010;2023-04-06T03:08:59;1.10;;;0.93;;
39654;SDS011;25336;59.944;11.010;2023-04-06T03:11:25;1.15;;;0.90;;
39654;SDS011;25336;59.944;11.010;2023-04-06T03:13:51;1.10;;;0.90;;
39654;SDS011;25336;59.944;11.010;2023-04-06T03:16:17;4.45;;;1.00;;
39654;SDS011;25336;59.944;11.010;2023-04-06T03:18:42;1.02;;;1.00;;
39654;SDS011;25336;59.944;11.010;2023-04-06T03:21:10;0.90;;;0.88;;
39654;SDS011;25336;59.944;11.010;2023-04-06T03:23:35;0.90;;;0.90;;
39654;SDS011;25336;59.944;11.010;2023-04-06T03:26:01;2.65;;;1.10;;
39654;SDS011;25336;59.944;11.010;2023-04-06T03:28:27;1.38;;;1.10;;
39654;SDS011;25336;59.944;11.010;2023-04-06T03:30:53;0.90;;;0.90;;
39654;SDS011;25336;59.944;11.010;2023-04-06T03:33:18;0.95;;;0.95;;
39654;SDS011;25336;59.944;11.010;2023-04-06T03:35:44;0.82;;;0.82;;
39654;SDS011;25336;59.944;11.010;2023-04-06T03:38:09;1.23;;;1.02;;
39654;SDS011;25336;59.944;11.010;2023-04-06T03:40:35;0.75;;;0.75;;
39654;SDS011;25336;59.944;11.010;2023-04-06T03:43:01;0.80;;;0.70;;
39654;SDS011;25336;59.944;11.010;2023-04-06T03:45:26;0.80;;;0.80;;
39654;SDS011;25336;59.944;11.010;2023-04-06T03:47:52;1.58;;;0.95;;
39654;SDS011;25336;59.944;11.010;2023-04-06T03:50:17;1.08;;;0.90;;
39654;SDS011;25336;59.944;11.010;2023-04-06T03:52:43;1.15;;;1.00;;
39654;SDS011;25336;59.944;11.010;2023-04-06T03:55:08;0.82;;;0.82;;
39654;SDS011;25336;59.944;11.010;2023-04-06T03:57:34;0.88;;;0.88;;
39654;SDS011;25336;59.944;11.010;2023-04-06T04:00:00;1.00;;;1.00;;
39654;SDS011;25336;59.944;11.010;2023-04-06T04:02:25;0.90;;;0.80;;
39654;SDS011;25336;59.944;11.010;2023-04-06T04:04:51;1.48;;;1.20;;
39654;SDS011;25336;59.944;11.010;2023-04-06T04:07:17;0.80;;;0.80;;
39654;SDS011;25336;59.944;11.010;2023-04-06T04:09:42;2.13;;;0.95;;
39654;SDS011;25336;59.944;11.010;2023-04-06T04:12:08;1.02;;;0.93;;
39654;SDS011;25336;59.944;11.010;2023-04-06T04:14:33;0.98;;;0.90;;
39654;SDS011;25336;59.944;11.010;2023-04-06T04:16:59;1.20;;;0.80;;
39654;SDS011;25336;59.944;11.010;2023-04-06T04:19:25;0.90;;;0.90;;
39654;SDS011;25336;59.944;11.010;2023-04-06T04:21:50;0.93;;;0.93;;
39654;SDS011;25336;59.944;11.010;2023-04-06T04:24:16;1.33;;;1.10;;
39654;SDS011;25336;59.944;11.010;2023-04-06T04:26:41;2.55;;;1.60;;
39654;SDS011;25336;59.944;11.010;2023-04-06T04:29:07;1.30;;;1.20;;
39654;SDS011;25336;59.944;11.010;2023-04-06T04:31:32;3.80;;;1.05;;
39654;SDS011;25336;59.944;11.010;2023-04-06T04:33:58;1.98;;;1.20;;
39654;SDS011;25336;59.944;11.010;2023-04-06T04:36:24;0.88;;;0.88;;
39654;SDS011;25336;59.944;11.010;2023-04-06T04:38:50;1.17;;;0.88;;
39654;SDS011;25336;59.944;11.010;2023-04-06T04:41:16;1.38;;;1.27;;
39654;SDS011;25336;59.944;11.010;2023-04-06T04:43:42;1.40;;;1.20;;
39654;SDS011;25336;59.944;11.010;2023-04-06T04:46:08;0.93;;;0.90;;
39654;SDS011;25336;59.944;11.010;2023-04-06T04:48:34;1.20;;;1.00;;
39654;SDS011;25336;59.944;11.010;2023-04-06T04:50:59;1.25;;;1.00;;
39654;SDS011;25336;59.944;11.010;2023-04-06T04:53:25;0.82;;;0.82;;
39654;SDS011;25336;59.944;11.010;2023-04-06T04:55:51;1.00;;;1.00;;
39654;SDS011;25336;59.944;11.010;2023-04-06T04:58:16;0.95;;;0.95;;
39654;SDS011;25336;59.944;11.010;2023-04-06T05:00:44;1.27;;;1.10;;
39654;SDS011;25336;59.944;11.010;2023-04-06T05:03:12;1.10;;;1.10;;
39654;SDS011;25336;59.944;11.010;2023-04-06T05:05:45;1.40;;;1.27;;
39654;SDS011;25336;59.944;11.010;2023-04-06T05:08:11;1.13;;;1.00;;
39654;SDS011;25336;59.944;11.010;2023-04-06T05:10:36;0.80;;;0.80;;
39654;SDS011;25336;59.944;11.010;2023-04-06T05:13:02;1.15;;;1.05;;
39654;SDS011;25336;59.944;11.010;2023-04-06T05:15:28;1.40;;;1.30;;
39654;SDS011;25336;59.944;11.010;2023-04-06T05:17:53;0.90;;;0.90;;
39654;SDS011;25336;59.944;11.010;2023-04-06T05:20:19;1.52;;;1.42;;
39654;SDS011;25336;59.944;11.010;2023-04-06T05:22:45;1.10;;;1.00;;
39654;SDS011;25336;59.944;11.010;2023-04-06T05:25:11;1.10;;;1.00;;
39654;SDS011;25336;59.944;11.010;2023-04-06T05:27:36;1.10;;;1.05;;
39654;SDS011;25336;59.944;11.010;2023-04-06T05:30:02;1.52;;;1.40;;
39654;SDS011;25336;59.944;11.010;2023-04-06T05:32:28;2.35;;;1.10;;
39654;SDS011;25336;59.944;11.010;2023-04-06T05:34:54;0.98;;;0.98;;
39654;SDS011;25336;59.944;11.010;2023-04-06T05:37:19;1.65;;;1.00;;
39654;SDS011;25336;59.944;11.010;2023-04-06T05:39:45;1.02;;;1.02;;
39654;SDS011;25336;59.944;11.010;2023-04-06T05:42:11;1.30;;;1.20;;
39654;SDS011;25336;59.944;11.010;2023-04-06T05:44:37;1.60;;;1.50;;
39654;SDS011;25336;59.944;11.010;2023-04-06T05:47:03;1.20;;;1.10;;
39654;SDS011;25336;59.944;11.010;2023-04-06T05:49:28;1.30;;;1.20;;
39654;SDS011;25336;59.944;11.010;2023-04-06T05:51:54;2.70;;;1.20;;
39654;SDS011;25336;59.944;11.010;2023-04-06T05:54:20;1.55;;;1.27;;
39654;SDS011;25336;59.944;11.010;2023-04-06T05:56:45;1.50;;;1.35;;
39654;SDS011;25336;59.944;11.010;2023-04-06T05:59:11;1.30;;;1.20;;
39654;SDS011;25336;59.944;11.010;2023-04-06T06:01:37;1.50;;;1.40;;
39654;SDS011;25336;59.944;11.010;2023-04-06T06:04:02;2.05;;;1.38;;
39654;SDS011;25336;59.944;11.010;2023-04-06T06:06:28;3.08;;;1.23;;
39654;SDS011;25336;59.944;11.010;2023-04-06T06:08:57;1.17;;;1.10;;
39654;SDS011;25336;59.944;11.010;2023-04-06T06:11:26;2.58;;;1.27;;
39654;SDS011;25336;59.944;11.010;2023-04-06T06:13:52;2.22;;;1.20;;
39654;SDS011;25336;59.944;11.010;2023-04-06T06:16:18;1.92;;;1.20;;
39654;SDS011;25336;59.944;11.010;2023-04-06T06:18:43;1.17;;;1.08;;
39654;SDS011;25336;59.944;11.010;2023-04-06T06:21:09;1.20;;;1.10;;
39654;SDS011;25336;59.944;11.010;2023-04-06T06:23:37;1.38;;;0.90;;
39654;SDS011;25336;59.944;11.010;2023-04-06T06:26:03;1.33;;;1.23;;
39654;SDS011;25336;59.944;11.010;2023-04-06T06:28:29;1.40;;;1.30;;
39654;SDS011;25336;59.944;11.010;2023-04-06T06:30:55;1.20;;;1.20;;
39654;SDS011;25336;59.944;11.010;2023-04-06T06:33:20;1.30;;;1.20;;
39654;SDS011;25336;59.944;11.010;2023-04-06T06:35:46;1.95;;;1.40;;
39654;SDS011;25336;59.944;11.010;2023-04-06T06:38:11;2.30;;;0.93;;
39654;SDS011;25336;59.944;11.010;2023-04-06T06:40:37;1.00;;;1.00;;
39654;SDS011;25336;59.944;11.010;2023-04-06T06:43:03;1.00;;;1.00;;
39654;SDS011;25336;59.944;11.010;2023-04-06T06:45:28;0.90;;;0.90;;
39654;SDS011;25336;59.944;11.010;2023-04-06T06:47:54;1.08;;;1.00;;
39654;SDS011;25336;59.944;11.010;2023-04-06T06:50:20;2.67;;;0.90;;
39654;SDS011;25336;59.944;11.010;2023-04-06T06:52:46;1.27;;;1.17;;
39654;SDS011;25336;59.944;11.010;2023-04-06T06:55:11;1.65;;;1.30;;
39654;SDS011;25336;59.944;11.010;2023-04-06T06:57:37;0.88;;;0.88;;
39654;SDS011;25336;59.944;11.010;2023-04-06T07:00:03;1.35;;;1.20;;
39654;SDS011;25336;59.944;11.010;2023-04-06T07:02:30;0.95;;;0.95;;
39654;SDS011;25336;59.944;11.010;2023-04-06T07:04:56;3.67;;;1.35;;
39654;SDS011;25336;59.944;11.010;2023-04-06T07:07:21;2.53;;;1.40;;
39654;SDS011;25336;59.944;11.010;2023-04-06T07:09:47;1.92;;;1.38;;
39654;SDS011;25336;59.944;11.010;2023-04-06T07:12:13;1.30;;;1.02;;
39654;SDS011;25336;59.944;11.010;2023-04-06T07:14:38;1.23;;;1.00;;
39654;SDS011;25336;59.944;11.010;2023-04-06T07:17:04;1.80;;;1.60;;
39654;SDS011;25336;59.944;11.010;2023-04-06T07:19:30;2.78;;;1.40;;
39654;SDS011;25336;59.944;11.010;2023-04-06T07:21:55;1.55;;;1.40;;
39654;SDS011;25336;59.944;11.010;2023-04-06T07:24:21;1.27;;;1.10;;
39654;SDS011;25336;59.944;11.010;2023-04-06T07:26:47;1.77;;;1.00;;
39654;SDS011;25336;59.944;11.010;2023-04-06T07:29:12;1.90;;;1.33;;
39654;SDS011;25336;59.944;11.010;2023-04-06T07:31:38;1.38;;;1.27;;
39654;SDS011;25336;59.944;11.010;2023-04-06T07:34:03;1.50;;;1.40;;
39654;SDS011;25336;59.944;11.010;2023-04-06T07:36:29;1.25;;;1.15;;
39654;SDS011;25336;59.944;11.010;2023-04-06T07:38:55;1.65;;;1.55;;
39654;SDS011;25336;59.944;11.010;2023-04-06T07:41:21;2.35;;;2.15;;
39654;SDS011;25336;59.944;11.010;2023-04-06T07:43:46;2.22;;;1.42;;
39654;SDS011;25336;59.944;11.010;2023-04-06T07:46:12;1.25;;;1.17;;
39654;SDS011;25336;59.944;11.010;2023-04-06T07:48:39;2.05;;;1.17;;
39654;SDS011;25336;59.944;11.010;2023-04-06T07:51:05;1.67;;;1.42;;
39654;SDS011;25336;59.944;11.010;2023-04-06T07:53:32;1.27;;;1.17;;
39654;SDS011;25336;59.944;11.010;2023-04-06T07:55:58;1.27;;;1.17;;
39654;SDS011;25336;59.944;11.010;2023-04-06T07:58:24;1.15;;;1.05;;
39654;SDS011;25336;59.944;11.010;2023-04-06T08:00:50;1.35;;;1.20;;
39654;SDS011;25336;59.944;11.010;2023-04-06T08:03:15;1.40;;;1.20;;
39654;SDS011;25336;59.944;11.010;2023-04-06T08:05:41;0.93;;;0.90;;
39654;SDS011;25336;59.944;11.010;2023-04-06T08:08:07;1.40;;;1.10;;
39654;SDS011;25336;59.944;11.010;2023-04-06T08:10:33;1.10;;;1.00;;
39654;SDS011;25336;59.944;11.010;2023-04-06T08:12:59;1.20;;;1.10;;
39654;SDS011;25336;59.944;11.010;2023-04-06T08:15:25;0.90;;;0.90;;
39654;SDS011;25336;59.944;11.010;2023-04-06T08:17:51;2.08;;;1.30;;
39654;SDS011;25336;59.944;11.010;2023-04-06T08:20:16;1.02;;;1.02;;
39654;SDS011;25336;59.944;11.010;2023-04-06T08:22:42;1.40;;;1.30;;
39654;SDS011;25336;59.944;11.010;2023-04-06T08:25:08;1.45;;;1.30;;
39654;SDS011;25336;59.944;11.010;2023-04-06T08:27:33;1.08;;;1.05;;
39654;SDS011;25336;59.944;11.010;2023-04-06T08:29:59;1.67;;;1.58;;
39654;SDS011;25336;59.944;11.010;2023-04-06T08:32:24;2.35;;;1.30;;
39654;SDS011;25336;59.944;11.010;2023-04-06T08:34:52;1.17;;;1.10;;
39654;SDS011;25336;59.944;11.010;2023-04-06T08:37:18;1.58;;;1.48;;
39654;SDS011;25336;59.944;11.010;2023-04-06T08:39:44;1.73;;;1.38;;
39654;SDS011;25336;59.944;11.010;2023-04-06T08:42:11;1.17;;;1.08;;
39654;SDS011;25336;59.944;11.010;2023-04-06T08:44:43;1.40;;;1.30;;
39654;SDS011;25336;59.944;11.010;2023-04-06T08:47:10;2.55;;;2.35;;
39654;SDS011;25336;59.944;11.010;2023-04-06T08:49:37;3.90;;;1.98;;
39654;SDS011;25336;59.944;11.010;2023-04-06T08:52:05;3.28;;;1.35;;
39654;SDS011;25336;59.944;11.010;2023-04-06T08:54:32;0.95;;;0.95;;
39654;SDS011;25336;59.944;11.010;2023-04-06T08:56:58;1.70;;;1.25;;
39654;SDS011;25336;59.944;11.010;2023-04-06T08:59:25;1.27;;;1.20;;
39654;SDS011;25336;59.944;11.010;2023-04-06T09:01:51;1.40;;;1.30;;
39654;SDS011;25336;59.944;11.010;2023-04-06T09:04:17;2.47;;;1.90;;
39654;SDS011;25336;59.944;11.010;2023-04-06T09:06:43;2.17;;;1.85;;
39654;SDS011;25336;59.944;11.010;2023-04-06T09:09:09;1.33;;;1.23;;
39654;SDS011;25336;59.944;11.010;2023-04-06T09:11:47;1.30;;;1.20;;
39654;SDS011;25336;59.944;11.010;2023-04-06T09:14:15;1.10;;;1.10;;
39654;SDS011;25336;59.944;11.010;2023-04-06T09:16:42;2.72;;;1.25;;
39654;SDS011;25336;59.944;11.010;2023-04-06T09:19:09;0.90;;;0.90;;
39654;SDS011;25336;59.944;11.010;2023-04-06T09:21:35;1.50;;;1.40;;
39654;SDS011;25336;59.944;11.010;2023-04-06T09:24:02;1.77;;;1.67;;
39654;SDS011;25336;59.944;11.010;2023-04-06T09:26:28;1.20;;;1.10;;
39654;SDS011;25336;59.944;11.010;2023-04-06T09:28:55;1.50;;;1.40;;
39654;SDS011;25336;59.944;11.010;2023-04-06T09:31:25;1.23;;;1.02;;
39654;SDS011;25336;59.944;11.010;2023-04-06T09:33:52;1.40;;;1.30;;
39654;SDS011;25336;59.944;11.010;2023-04-06T09:36:19;1.27;;;1.17;;
39654;SDS011;25336;59.944;11.010;2023-04-06T09:38:55;1.58;;;1.20;;
39654;SDS011;25336;59.944;11.010;2023-04-06T09:41:48;1.42;;;1.38;;
39654;SDS011;25336;59.944;11.010;2023-04-06T09:44:15;1.70;;;1.35;;
39654;SDS011;25336;59.944;11.010;2023-04-06T09:46:41;10.63;;;6.85;;
39654;SDS011;25336;59.944;11.010;2023-04-06T09:49:09;2.92;;;2.30;;
39654;SDS011;25336;59.944;11.010;2023-04-06T09:51:45;1.45;;;1.33;;
39654;SDS011;25336;59.944;11.010;2023-04-06T09:54:15;1.42;;;1.30;;
39654;SDS011;25336;59.944;11.010;2023-04-06T09:56:47;1.58;;;1.45;;
39654;SDS011;25336;59.944;11.010;2023-04-06T10:02:26;2.00;;;1.33;;
39654;SDS011;25336;59.944;11.010;2023-04-06T10:07:43;1.67;;;1.50;;
39654;SDS011;25336;59.944;11.010;2023-04-06T10:10:10;2.42;;;1.45;;
39654;SDS011;25336;59.944;11.010;2023-04-06T10:12:37;1.60;;;1.50;;
39654;SDS011;25336;59.944;11.010;2023-04-06T10:15:04;1.35;;;1.25;;
39654;SDS011;25336;59.944;11.010;2023-04-06T10:17:30;3.08;;;1.45;;
39654;SDS011;25336;59.944;11.010;2023-04-06T10:20:03;1.48;;;1.38;;
39654;SDS011;25336;59.944;11.010;2023-04-06T10:25:08;1.38;;;1.27;;
39654;SDS011;25336;59.944;11.010;2023-04-06T10:27:34;1.40;;;1.30;;
39654;SDS011;25336;59.944;11.010;2023-04-06T10:30:00;1.73;;;1.45;;
39654;SDS011;25336;59.944;11.010;2023-04-06T10:32:37;1.30;;;1.20;;
39654;SDS011;25336;59.944;11.010;2023-04-06T10:35:07;2.22;;;1.40;;
39654;SDS011;25336;59.944;11.010;2023-04-06T10:37:45;1.60;;;1.48;;
39654;SDS011;25336;59.944;11.010;2023-04-06T10:40:22;2.47;;;1.30;;
39654;SDS011;25336;59.944;11.010;2023-04-06T10:42:50;2.08;;;1.70;;
39654;SDS011;25336;59.944;11.010;2023-04-06T10:45:23;1.10;;;1.10;;
39654;SDS011;25336;59.944;11.010;2023-04-06T10:47:53;1.60;;;1.30;;
39654;SDS011;25336;59.944;11.010;2023-04-06T10:50:20;1.73;;;1.52;;
39654;SDS011;25336;59.944;11.010;2023-04-06T10:52:46;2.05;;;1.88;;
39654;SDS011;25336;59.944;11.010;2023-04-06T10:55:13;1.48;;;1.38;;
39654;SDS011;25336;59.944;11.010;2023-04-06T10:57:40;2.22;;;1.80;;
39654;SDS011;25336;59.944;11.010;2023-04-06T11:00:06;1.33;;;1.23;;
39654;SDS011;25336;59.944;11.010;2023-04-06T11:02:35;1.50;;;1.38;;
39654;SDS011;25336;59.944;11.010;2023-04-06T11:05:02;1.60;;;1.50;;
39654;SDS011;25336;59.944;11.010;2023-04-06T11:07:28;2.08;;;1.90;;
39654;SDS011;25336;59.944;11.010;2023-04-06T11:09:55;1.40;;;1.30;;
39654;SDS011;25336;59.944;11.010;2023-04-06T11:14:54;1.65;;;1.55;;
39654;SDS011;25336;59.944;11.010;2023-04-06T11:17:34;1.90;;;1.27;;
39654;SDS011;25336;59.944;11.010;2023-04-06T11:20:01;2.00;;;1.85;;
39654;SDS011;25336;59.944;11.010;2023-04-06T11:22:28;3.35;;;1.60;;
39654;SDS011;25336;59.944;11.010;2023-04-06T11:25:07;1.85;;;1.67;;
39654;SDS011;25336;59.944;11.010;2023-04-06T11:27:33;3.65;;;1.45;;
39654;SDS011;25336;59.944;11.010;2023-04-06T11:30:01;1.88;;;1.70;;
39654;SDS011;25336;59.944;11.010;2023-04-06T11:32:27;1.45;;;1.35;;
39654;SDS011;25336;59.944;11.010;2023-04-06T11:34:53;1.60;;;1.50;;
39654;SDS011;25336;59.944;11.010;2023-04-06T11:37:18;1.70;;;1.60;;
39654;SDS011;25336;59.944;11.010;2023-04-06T11:39:48;3.63;;;1.45;;
39654;SDS011;25336;59.944;11.010;2023-04-06T11:42:25;1.65;;;1.45;;
39654;SDS011;25336;59.944;11.010;2023-04-06T11:44:58;2.58;;;2.28;;
39654;SDS011;25336;59.944;11.010;2023-04-06T11:47:35;2.80;;;1.67;;
39654;SDS011;25336;59.944;11.010;2023-04-06T11:50:06;2.65;;;2.03;;
39654;SDS011;25336;59.944;11.010;2023-04-06T11:52:36;2.88;;;1.70;;
39654;SDS011;25336;59.944;11.010;2023-04-06T11:55:10;3.80;;;2.92;;
39654;SDS011;25336;59.944;11.010;2023-04-06T11:57:36;3.35;;;2.50;;
39654;SDS011;25336;59.944;11.010;2023-04-06T12:00:02;3.67;;;2.40;;
39654;SDS011;25336;59.944;11.010;2023-04-06T12:02:28;2.50;;;2.22;;
39654;SDS011;25336;59.944;11.010;2023-04-06T12:04:54;2.80;;;2.35;;
39654;SDS011;25336;59.944;11.010;2023-04-06T12:07:20;3.95;;;2.45;;
39654;SDS011;25336;59.944;11.010;2023-04-06T12:09:45;2.97;;;2.35;;
39654;SDS011;25336;59.944;11.010;2023-04-06T12:12:11;4.00;;;2.30;;
39654;SDS011;25336;59.944;11.010;2023-04-06T12:14:36;4.25;;;3.47;;
39654;SDS011;25336;59.944;11.010;2023-04-06T12:17:02;5.20;;;3.75;;
39654;SDS011;25336;59.944;11.010;2023-04-06T12:19:28;2.83;;;2.22;;
39654;SDS011;25336;59.944;11.010;2023-04-06T12:21:53;3.63;;;2.67;;
39654;SDS011;25336;59.944;11.010;2023-04-06T12:24:20;3.13;;;2.40;;
39654;SDS011;25336;59.944;11.010;2023-04-06T12:26:46;1.98;;;1.80;;
39654;SDS011;25336;59.944;11.010;2023-04-06T12:29:11;3.70;;;1.70;;
39654;SDS011;25336;59.944;11.010;2023-04-06T12:31:38;2.08;;;1.88;;
39654;SDS011;25336;59.944;11.010;2023-04-06T12:34:05;1.63;;;1.52;;
39654;SDS011;25336;59.944;11.010;2023-04-06T12:36:34;1.85;;;1.70;;
39654;SDS011;25336;59.944;11.010;2023-04-06T12:39:01;3.38;;;2.08;;
39654;SDS011;25336;59.944;11.010;2023-04-06T12:41:27;2.15;;;1.85;;
39654;SDS011;25336;59.944;11.010;2023-04-06T12:43:57;3.20;;;2.30;;
39654;SDS011;25336;59.944;11.010;2023-04-06T12:46:24;3.40;;;2.55;;
39654;SDS011;25336;59.944;11.010;2023-04-06T12:48:50;6.40;;;3.55;;
39654;SDS011;25336;59.944;11.010;2023-04-06T12:51:20;5.82;;;2.75;;
39654;SDS011;25336;59.944;11.010;2023-04-06T12:53:46;2.63;;;2.42;;
39654;SDS011;25336;59.944;11.010;2023-04-06T12:56:13;2.67;;;2.20;;
39654;SDS011;25336;59.944;11.010;2023-04-06T12:58:42;2.15;;;1.95;;
39654;SDS011;25336;59.944;11.010;2023-04-06T13:01:08;2.15;;;1.95;;
39654;SDS011;25336;59.944;11.010;2023-04-06T13:03:35;2.88;;;1.85;;
39654;SDS011;25336;59.944;11.010;2023-04-06T13:06:01;1.75;;;1.55;;
39654;SDS011;25336;59.944;11.010;2023-04-06T13:08:27;2.20;;;2.00;;
39654;SDS011;25336;59.944;11.010;2023-04-06T13:10:52;1.90;;;1.80;;
39654;SDS011;25336;59.944;11.010;2023-04-06T13:13:23;2.30;;;1.98;;
39654;SDS011;25336;59.944;11.010;2023-04-06T13:15:50;2.72;;;2.15;;
39654;SDS011;25336;59.944;11.010;2023-04-06T13:18:17;3.00;;;2.10;;
39654;SDS011;25336;59.944;11.010;2023-04-06T13:20:42;3.67;;;2.22;;
39654;SDS011;25336;59.944;11.010;2023-04-06T13:23:08;2.85;;;2.30;;
39654;SDS011;25336;59.944;11.010;2023-04-06T13:25:34;2.88;;;2.22;;
39654;SDS011;25336;59.944;11.010;2023-04-06T13:28:00;2.10;;;1.90;;
39654;SDS011;25336;59.944;11.010;2023-04-06T13:30:26;2.80;;;2.42;;
39654;SDS011;25336;59.944;11.010;2023-04-06T13:32:51;2.80;;;1.80;;
39654;SDS011;25336;59.944;11.010;2023-04-06T13:35:17;1.80;;;1.60;;
39654;SDS011;25336;59.944;11.010;2023-04-06T13:37:43;2.13;;;1.92;;
39654;SDS011;25336;59.944;11.010;2023-04-06T13:40:12;2.15;;;1.95;;
39654;SDS011;25336;59.944;11.010;2023-04-06T13:42:37;3.47;;;2.97;;
39654;SDS011;25336;59.944;11.010;2023-04-06T13:45:05;3.33;;;2.67;;
39654;SDS011;25336;59.944;11.010;2023-04-06T13:47:31;8.30;;;4.45;;
39654;SDS011;25336;59.944;11.010;2023-04-06T13:49:57;6.38;;;4.25;;
39654;SDS011;25336;59.944;11.010;2023-04-06T13:52:23;5.30;;;4.57;;
39654;SDS011;25336;59.944;11.010;2023-04-06T13:54:48;6.45;;;4.28;;
39654;SDS011;25336;59.944;11.010;2023-04-06T13:57:15;4.05;;;3.45;;
39654;SDS011;25336;59.944;11.010;2023-04-06T13:59:40;5.32;;;4.38;;
39654;SDS011;25336;59.944;11.010;2023-04-06T14:02:07;5.45;;;3.53;;
39654;SDS011;25336;59.944;11.010;2023-04-06T14:04:33;3.97;;;2.75;;
39654;SDS011;25336;59.944;11.010;2023-04-06T14:06:59;6.85;;;2.75;;
39654;SDS011;25336;59.944;11.010;2023-04-06T14:09:26;5.55;;;3.45;;
39654;SDS011;25336;59.944;11.010;2023-04-06T14:11:53;4.60;;;3.20;;
39654;SDS011;25336;59.944;11.010;2023-04-06T14:14:19;5.78;;;3.97;;
39654;SDS011;25336;59.944;11.010;2023-04-06T14:16:45;3.17;;;2.88;;
39654;SDS011;25336;59.944;11.010;2023-04-06T14:19:11;3.30;;;2.47;;
39654;SDS011;25336;59.944;11.010;2023-04-06T14:21:41;2.72;;;2.47;;
39654;SDS011;25336;59.944;11.010;2023-04-06T14:24:08;2.78;;;2.03;;
39654;SDS011;25336;59.944;11.010;2023-04-06T14:26:37;2.80;;;2.40;;
39654;SDS011;25336;59.944;11.010;2023-04-06T14:29:04;2.40;;;2.15;;
39654;SDS011;25336;59.944;11.010;2023-04-06T14:31:31;2.35;;;2.15;;
39654;SDS011;25336;59.944;11.010;2023-04-06T14:33:56;3.65;;;2.47;;
39654;SDS011;25336;59.944;11.010;2023-04-06T14:36:22;3.28;;;2.78;;
39654;SDS011;25336;59.944;11.010;2023-04-06T14:38:48;2.90;;;2.38;;
39654;SDS011;25336;59.944;11.010;2023-04-06T14:41:15;3.85;;;2.40;;